3MI2 weather

South Fox Island Airport
Northport, Michigan, United States

Public forecast

Using degrees Fahrenheit for public forecast. Weather courtesy of forecast.io.

METAR (pilot weather report)

Closest report is Beaver Island Airport, 20.8 nm (38.5 km) NNE. Retrieved 2019/06/20 04:36 UTC (0 seconds ago):

KSJX 200436Z AUTO 04006KT 10SM CLR 13/08 A2978 RMK AO2 T01330077

TAF (pilot weather forecast)

Forecast is more than 12 hours old.

Closest forecast is Cherry Capital Airport, 40.9 nm (75.7 km) SSE. Retrieved 2019/06/19 00:22 UTC (1 day ago):

TAF KTVC 192320Z 2000/2024 VRB04KT P6SM SCT200 FM200300 00000KT P6SM BKN025 FM200600 00000KT P6SM OVC150 FM201000 00000KT P6SM BKN040 FM201700 04006KT P6SM BKN120